Amunt
Inicio > meteoXarxa
Fes-te'n soci

METEOXARXA

Morella
Ubicació centre
Comarca els Ports
Altitud (msnm) 1010
Posició geogràfica 40° 37' 27.84" N, 00° 6' 0.00" W
Model
Presa de dades
Font de les dades Juan Amela
Estadístiques. Resum
Data Temperatura (ºC) Humitat (%) Pressió (hPa) Vent (km/h) Precipit. (mm)
Mínima Mitjana Màxima Mínima Mitjana Màxima Mínima Mitjana Màxima Predom. Mitjana Ràfega màxima Total Dies de pluja
Mínima Mitjana Màxima Mínima Mitjana Màxima
Últimes dades diàries
16-01-2017 2,7     5,2     8,3 SE 12,1 53,1 3,2  
15-01-2017 0,2     3,0     6,5 SE 10,9 41,8 0,0  
14-01-2017 -0,3     1,4     4,7 SE 10,0 46,7 0,0  
13-01-2017 0,8     4,7     9,9 SE 12,6 61,2 0,0  
12-01-2017 5,9     11,0     17,7 SW 4,2 25,7 0,0  
11-01-2017 3,7     6,9     10,2 ESE 8,4 35,4 0,0  
10-01-2017 3,5     5,1     7,2 SE 10,8 45,1 2,0  
09-01-2017 1,2     4,7     9,9 NW 4,8 24,1 0,0  
08-01-2017 -0,1     4,7     10,7 SW 3,9 20,9 0,0  
07-01-2017 0,3     4,4     11,4 SSE 3,1 17,7 0,0  
06-01-2017 -1,4     4,2     11,4 SSW 2,6 12,9 0,0  
05-01-2017 4,3     7,2     11,9 ESE 7,6 30,6 0,0  
04-01-2017 4,9     8,2     12,4 SE 7,1 30,6 0,0  
03-01-2017 4,6     9,1     13,4 ENE 4,8 24,1 0,0  
02-01-2017 2,1     5,2     10,9 ENE 3,4 11,3 0,0  
01-01-2017 0,9     4,8     10,2 ENE 3,4 20,9 0,0  
31-12-2016 3,0     5,3     9,8 ESE 5,8 29,0 0,2  
30-12-2016 3,1     6,7     13,2 SSE 3,9 17,7 0,0  
29-12-2016 3,6     8,7     17,4 SE 2,1 12,9 0,0  
28-12-2016 4,4     8,6     15,0 SW 1,8 16,1 0,0  
27-12-2016 2,8     6,8     12,9 SW 1,3 9,7 0,0  
26-12-2016 4,8     10,2     17,2 WSW 2,1 14,5 0,0  
25-12-2016 4,2     8,1     13,0 SW 3,7 16,1 0,0  
24-12-2016 5,8     7,6     9,4 S 3,9 24,1 0,0  
23-12-2016 6,6     8,0     9,8 S 2,9 16,1 0,0  
22-12-2016 2,8     5,9     10,3 SE 3,1 17,7 0,0  
21-12-2016 2,1     4,9     9,5 E 5,0 25,7 0,0  
20-12-2016 2,4     4,4     8,5 ESE 7,2 30,6 0,0  
19-12-2016 1,0     2,1     3,3 SW 4,3 20,9 3,0  
18-12-2016 2,6     3,7     4,9 ENE 2,9 17,7 1,2  
17-12-2016 4,8     6,5     7,6 NE 14,2 48,3 23,4  
16-12-2016 5,9     6,8     8,1 ENE 7,9 32,2 21,4  
Dades del mes en curs (actualitzades fins l'últim dia disponible)
01/2017 -1,4 2,1 5,9 5,6 4,7 10,4 17,7   6,9 61,2 5,2  
Últimes dades mensuals
12/2016 1,0 4,4 7,8 7,2 3,3 11,4 17,4 4,2 48,3 66,8 9
11/2016 -0,2 5,5 12,3 8,9 7,0 13,1 22,8 5,7 62,8 100,4 12
10/2016 4,6 11,1 15,0 14,7 12,4 19,8 26,6 5,1 41,8 28,4 11
09/2016 9,7 14,9 24,4 18,9 17,2 24,7 35,0 6,0 56,3 54,2 7
08/2016 9,8 16,6 21,4 21,8 22,9 28,3 31,7 6,9 40,2 15,4 6
07/2016 8,7 16,5 22,3 23,2 22,8 29,8 34,8 7,0 54,7 15,2 8
06/2016 7,5 13,0 18,3 19,1 19,0 25,1 31,3 6,5 43,5 54,8 9
05/2016 1,2 8,9 14,9 13,3 10,9 18,6 25,3 7,4 48,3 38,4 9
04/2016 1,2 5,9 11,2 9,9 8,3 14,7 21,9 77,3 77,3 77,3 6,6 54,7 63,8 12
03/2016 -2,0 2,7 10,4 7,0 4,6 11,3 21,0 51,0 69,0 86,0 6,9 51,5 46,4 16
02/2016 -6,1 2,9 10,5 7,1 4,6 11,4 17,1 48,0 67,0 85,0 7,2 74,0 75,0 10
01/2016 -2,0 4,5 14,1 8,0 4,8 11,9 19,3 51,0 68,0 85,0 6,1 59,5 13,0 9
12/2015 4,3 6,9 10,9 10,3 10,7 15,5 20,0 3,4 35,4 0,6 3
Dades de l'any en curs (actualitzades fins l'últim dia disponible)
2017 -1,4 2,1 5,9 5,6 4,7 10,4 17,7   6,9 61,2 5,2  
Últimes dades anuals
2006 -9,0 8,6 13,2 18,2 33,0 1.018,0 415,8 96
2007 -10,0 7,7 12,5 17,0 34,5 12,0 53,8 93,0 1.003,0 1.018,7 1.034,0 746,8 112
2008 -5,5 7,7 12,2 16,8 32,5 24,0 64,4 94,0 994,0 1.017,1 1.033,0 586,9 123
2009 -7,0 8,2 24,5 13,2 -3,0 18,2 35,0 33,0 59,0 93,0 991,0 1.015,5 1.029,0 532,7 136
2010 -8,0 7,8 24,2 12,4 -4,0 16,9 34,8 22,0 60,4 94,0 986,0 1.014,5 1.029,0 639,6 138
2011 -6,5 8,7 22,0 13,6 2,1 18,5 33,0 26,0 57,8 89,0 998,0 1.017,6 1.035,0 624,8 119
2012 -9,0 8,0 9,0 13,1 16,0 18,1 37,5 51,5 59,0 73,3 1.008,3 1.016,7 1.024,2 601,9 104
2013 -5,5 6,4 13,5 12,2 16,5 15,5 31,5 59,6 63,9 68,1 1.008,4 1.016,1 1.018,8 714,9 134
2014 -4,0 9,4 22,6 13,4 4,3 18,4 32,9 6,4 85,3 848,0 127
2015 -5,5 9,6 14,4 13,6 12,7 18,8 37,2 6,0 77,2 757,6 91